Time;durP1;ratioP1;P1;durP2;ratioP2;P2;SDS_P1;SDS_P2;PMS_P1;PMS_P2;Temp;Humidity;BMP_temperature;BMP_pressure;BME280_temperature;BME280_humidity;BME280_pressure;Samples;Min_cycle;Max_cycle;Signal;HPM_P1;HPM_P2
2022/01/14 00:02:23;;;;;;;0.10;0.10;;;5.60;99.90;;;;;;5131127;28;20036;-79
2022/01/14 00:04:50;;;;;;;0.35;0.20;;;5.60;99.90;;;;;;5113873;28;20036;-79
2022/01/14 00:07:17;;;;;;;0.10;0.10;;;5.60;99.90;;;;;;5107312;28;20438;-80
2022/01/14 00:09:44;;;;;;;0.10;0.10;;;5.60;99.90;;;;;;5127676;28;20055;-80
2022/01/14 00:12:16;;;;;;;0.10;0.10;;;5.60;99.90;;;;;;5144363;28;20048;-79
2022/01/14 00:14:59;;;;;;;0.10;0.10;;;5.60;99.90;;;;;;5127599;28;20047;-79
2022/01/14 00:17:26;;;;;;;0.10;0.10;;;5.60;99.90;;;;;;5112646;28;20073;-78
2022/01/14 00:19:53;;;;;;;0.10;0.10;;;5.60;99.90;;;;;;5110779;28;20040;-80
2022/01/14 00:22:20;;;;;;;0.10;0.10;;;5.60;99.90;;;;;;5110528;28;20051;-80
2022/01/14 00:33:05;;;;;;;0.10;0.10;;;5.60;99.90;;;;;;5127132;28;20040;-79
2022/01/14 00:35:33;;;;;;;0.10;0.10;;;5.50;99.90;;;;;;5110316;28;20119;-79
2022/01/14 00:38:00;;;;;;;0.10;0.10;;;5.50;99.90;;;;;;5127459;28;20035;-79
2022/01/14 00:40:27;;;;;;;0.08;0.08;;;5.50;99.90;;;;;;5093281;28;20401;-79
2022/01/14 00:42:54;;;;;;;0.10;0.10;;;5.60;99.90;;;;;;5127225;28;20052;-78
2022/01/14 00:45:21;;;;;;;0.10;0.10;;;5.50;99.90;;;;;;5143945;28;20124;-80
2022/01/14 00:47:48;;;;;;;0.10;0.10;;;5.50;99.90;;;;;;5127209;28;20055;-79
2022/01/14 00:50:17;;;;;;;0.10;0.10;;;5.50;99.90;;;;;;5126842;28;20462;-78
2022/01/14 00:52:44;;;;;;;0.13;0.13;;;5.50;99.90;;;;;;5126964;28;20044;-78
2022/01/14 00:55:15;;;;;;;0.10;0.10;;;5.50;99.90;;;;;;5126610;28;20075;-79
2022/01/14 01:00:32;;;;;;;0.10;0.10;;;5.50;99.90;;;;;;5146165;27;20141;-78
2022/01/14 01:03:01;;;;;;;0.10;0.10;;;5.50;99.90;;;;;;5126502;28;20078;-79
2022/01/14 01:05:28;;;;;;;0.10;0.10;;;5.50;99.90;;;;;;5126524;28;20044;-80
2022/01/14 01:08:06;;;;;;;0.15;0.15;;;5.50;99.90;;;;;;5126532;28;20416;-78
2022/01/14 01:10:34;;;;;;;0.10;0.10;;;5.50;99.90;;;;;;5110893;28;20044;-78
2022/01/14 01:13:13;;;;;;;0.10;0.10;;;5.60;99.90;;;;;;5143484;28;20040;-79
2022/01/14 01:15:40;;;;;;;0.10;0.10;;;5.60;99.90;;;;;;5109496;28;20071;-79
2022/01/14 01:18:07;;;;;;;0.00;0.00;;;5.60;99.90;;;;;;5126434;28;20071;-80
2022/01/14 01:20:34;;;;;;;0.10;0.10;;;5.50;99.90;;;;;;5109087;28;20039;-80
2022/01/14 01:23:00;;;;;;;0.00;0.00;;;5.60;99.90;;;;;;5109414;28;20056;-80
2022/01/14 01:25:35;;;;;;;0.10;0.10;;;5.50;99.90;;;;;;5125844;28;20455;-80
2022/01/14 01:28:03;;;;;;;0.10;0.10;;;5.50;99.90;;;;;;5109267;28;20044;-78
2022/01/14 01:32:58;;;;;;;0.10;0.10;;;5.50;99.90;;;;;;5126098;28;20079;-80
2022/01/14 01:35:25;;;;;;;0.10;0.10;;;5.60;99.90;;;;;;5125999;28;20039;-80
2022/01/14 01:37:52;;;;;;;0.05;0.05;;;5.60;99.90;;;;;;5126093;28;20032;-78
2022/01/14 01:40:22;;;;;;;0.00;0.00;;;5.60;99.90;;;;;;5142665;28;20047;-79
2022/01/14 01:42:50;;;;;;;0.00;0.00;;;5.60;99.90;;;;;;5142911;28;20086;-79
2022/01/14 01:45:22;;;;;;;0.10;0.10;;;5.60;99.90;;;;;;5109401;28;20051;-79
2022/01/14 01:47:50;;;;;;;0.10;0.10;;;5.60;99.90;;;;;;5126042;28;20055;-79
2022/01/14 01:50:21;;;;;;;0.00;0.00;;;5.60;99.90;;;;;;5125520;28;20055;-79
2022/01/14 01:52:48;;;;;;;0.10;0.10;;;5.60;99.90;;;;;;5125743;28;20405;-80
2022/01/14 01:55:15;;;;;;;0.20;0.20;;;5.50;99.90;;;;;;5109165;28;20047;-80
2022/01/14 01:57:43;;;;;;;0.10;0.10;;;5.50;99.90;;;;;;5108640;28;20032;-78
2022/01/14 02:00:12;;;;;;;0.10;0.10;;;5.50;99.90;;;;;;5126119;28;20036;-80
2022/01/14 02:02:39;;;;;;;0.10;0.10;;;5.50;99.90;;;;;;5142451;28;20082;-79
2022/01/14 02:05:06;;;;;;;0.10;0.10;;;5.60;99.90;;;;;;5109408;28;20036;-78
2022/01/14 02:07:34;;;;;;;0.10;0.10;;;5.50;99.90;;;;;;5124875;28;20047;-78
2022/01/14 02:10:01;;;;;;;0.10;0.10;;;5.50;99.90;;;;;;5142296;28;20043;-79
2022/01/14 02:12:37;;;;;;;0.10;0.10;;;5.50;99.90;;;;;;5125063;28;20053;-78
2022/01/14 02:15:14;;;;;;;0.10;0.10;;;5.50;99.90;;;;;;5108903;28;20036;-80
2022/01/14 02:23:15;;;;;;;0.10;0.10;;;5.50;99.90;;;;;;5125254;28;20540;-79
2022/01/14 02:25:44;;;;;;;0.10;0.10;;;5.50;99.90;;;;;;5125287;28;20051;-78
2022/01/14 02:28:13;;;;;;;0.10;0.10;;;5.50;99.90;;;;;;5125892;28;20083;-80
2022/01/14 02:30:41;;;;;;;0.25;0.25;;;5.50;99.90;;;;;;5125119;28;20089;-78
2022/01/14 02:33:10;;;;;;;0.10;0.10;;;5.50;99.90;;;;;;5091847;28;20043;-78
2022/01/14 02:35:39;;;;;;;0.10;0.10;;;5.60;99.90;;;;;;5124839;28;20051;-80
2022/01/14 02:38:08;;;;;;;0.10;0.10;;;5.50;99.90;;;;;;5125479;28;20118;-79
2022/01/14 02:40:36;;;;;;;0.10;0.10;;;5.50;99.90;;;;;;5124884;28;20484;-79
2022/01/14 02:43:05;;;;;;;0.10;0.10;;;5.50;99.90;;;;;;5125269;28;20554;-79
2022/01/14 02:45:34;;;;;;;0.10;0.10;;;5.50;99.90;;;;;;5124546;28;20562;-80
2022/01/14 02:48:04;;;;;;;0.10;0.10;;;5.50;99.90;;;;;;5125239;28;20086;-80
2022/01/14 02:50:41;;;;;;;0.10;0.10;;;5.40;99.90;;;;;;5108271;28;20060;-79
2022/01/14 02:53:27;;;;;;;0.10;0.10;;;5.40;99.90;;;;;;5122250;28;20047;-79
2022/01/14 02:55:59;;;;;;;0.10;0.10;;;5.50;99.90;;;;;;5124054;28;20047;-78
2022/01/14 02:58:29;;;;;;;0.10;0.10;;;5.40;99.90;;;;;;5127936;28;20040;-79
2022/01/14 03:01:00;;;;;;;0.10;0.10;;;5.40;99.90;;;;;;5128229;28;20078;-80
2022/01/14 03:03:29;;;;;;;0.10;0.10;;;5.50;99.90;;;;;;5159615;28;20036;-79
2022/01/14 03:05:56;;;;;;;0.10;0.10;;;6.30;99.90;;;;;;5149135;28;20036;-78
2022/01/14 03:08:23;;;;;;;0.10;0.10;;;5.50;99.90;;;;;;5091609;28;20503;-78
2022/01/14 03:10:58;;;;;;;0.10;0.10;;;5.50;99.90;;;;;;5091380;28;20065;-80
2022/01/14 03:13:26;;;;;;;0.10;0.10;;;5.50;99.90;;;;;;5141948;28;20044;-79
2022/01/14 03:15:53;;;;;;;0.10;0.10;;;5.50;99.90;;;;;;5108011;28;20150;-78
2022/01/14 03:18:33;;;;;;;0.10;0.10;;;5.50;99.90;;;;;;5125012;28;20501;-79
2022/01/14 03:21:13;;;;;;;0.10;0.10;;;5.50;99.90;;;;;;5112197;28;20067;-78
2022/01/14 03:23:50;;;;;;;0.10;0.10;;;5.50;99.90;;;;;;5113078;28;20060;-79
2022/01/14 03:26:19;;;;;;;0.10;0.10;;;5.50;99.90;;;;;;5145833;28;20046;-79
2022/01/14 03:28:48;;;;;;;0.10;0.10;;;5.50;99.90;;;;;;5111421;28;20082;-78
2022/01/14 03:31:15;;;;;;;0.10;0.10;;;5.50;99.90;;;;;;5095100;28;20417;-79
2022/01/14 03:33:41;;;;;;;0.10;0.10;;;5.70;99.90;;;;;;5094586;28;20044;-78
2022/01/14 03:36:08;;;;;;;0.10;0.10;;;5.60;99.90;;;;;;5128411;28;20047;-78
2022/01/14 03:38:36;;;;;;;0.00;0.00;;;5.60;99.90;;;;;;5145124;28;20039;-80
2022/01/14 03:41:04;;;;;;;0.10;0.10;;;5.60;99.90;;;;;;5112061;28;20043;-80
2022/01/14 03:43:31;;;;;;;0.10;0.10;;;5.60;99.90;;;;;;5145230;28;20113;-79
2022/01/14 03:45:58;;;;;;;0.10;0.10;;;5.70;99.90;;;;;;5111408;28;20089;-78
2022/01/14 03:48:25;;;;;;;0.10;0.10;;;5.60;99.90;;;;;;5111732;28;20444;-79
2022/01/14 03:50:51;;;;;;;0.10;0.10;;;5.50;99.90;;;;;;5111225;28;20484;-79
2022/01/14 03:53:18;;;;;;;0.10;0.10;;;5.50;99.90;;;;;;5094570;28;20036;-78
2022/01/14 03:55:45;;;;;;;0.10;0.10;;;5.50;99.90;;;;;;5110554;28;20040;-79
2022/01/14 03:58:15;;;;;;;0.10;0.10;;;5.60;99.90;;;;;;5111997;28;20036;-79
2022/01/14 04:00:42;;;;;;;0.10;0.10;;;5.50;99.90;;;;;;5110973;28;20047;-79
2022/01/14 04:03:08;;;;;;;0.10;0.10;;;5.50;99.90;;;;;;5094823;28;20040;-79
2022/01/14 04:05:35;;;;;;;0.00;0.00;;;5.60;99.90;;;;;;5094234;28;20487;-79
2022/01/14 04:08:03;;;;;;;0.10;0.10;;;5.60;99.90;;;;;;5111200;28;20090;-79
2022/01/14 04:10:30;;;;;;;0.10;0.10;;;5.50;99.90;;;;;;5111019;28;20408;-79
2022/01/14 04:13:11;;;;;;;0.10;0.10;;;5.50;99.90;;;;;;5127297;28;20043;-79
2022/01/14 04:15:38;;;;;;;0.10;0.10;;;5.50;99.90;;;;;;5110749;28;20036;-79
2022/01/14 04:18:10;;;;;;;0.10;0.10;;;5.60;99.90;;;;;;5127882;28;20514;-79
2022/01/14 04:20:38;;;;;;;0.00;0.00;;;5.60;99.90;;;;;;5127681;28;20036;-79
2022/01/14 04:23:06;;;;;;;0.08;0.08;;;5.60;99.90;;;;;;5144365;28;20495;-78
2022/01/14 04:25:34;;;;;;;0.17;0.17;;;5.60;99.90;;;;;;5127612;28;20086;-80
2022/01/14 04:28:03;;;;;;;0.10;0.10;;;5.60;99.90;;;;;;5110298;28;20039;-78
2022/01/14 04:30:30;;;;;;;0.10;0.10;;;5.60;99.90;;;;;;5110282;28;20130;-80
2022/01/14 04:32:58;;;;;;;0.10;0.10;;;5.60;99.90;;;;;;5110229;28;20047;-78
2022/01/14 04:35:27;;;;;;;0.10;0.10;;;6.10;99.90;;;;;;5110542;28;20120;-79
2022/01/14 04:37:54;;;;;;;0.55;0.30;;;5.60;99.90;;;;;;5145543;28;20063;-78
2022/01/14 04:40:21;;;;;;;0.10;0.10;;;5.50;99.90;;;;;;5110300;28;20644;-78
2022/01/14 04:42:48;;;;;;;0.10;0.10;;;5.50;99.90;;;;;;5126560;28;20169;-80
2022/01/14 04:45:39;;;;;;;0.10;0.10;;;5.40;99.90;;;;;;5093870;28;20044;-80
2022/01/14 04:48:08;;;;;;;0.10;0.10;;;5.40;99.90;;;;;;5126699;28;20063;-80
2022/01/14 04:50:35;;;;;;;0.10;0.10;;;5.30;99.90;;;;;;5110310;28;20058;-80
2022/01/14 04:53:02;;;;;;;0.03;0.03;;;5.30;99.90;;;;;;5109667;28;20048;-80
2022/01/14 04:55:29;;;;;;;0.10;0.10;;;5.80;99.90;;;;;;5143801;28;20080;-80
2022/01/14 04:57:56;;;;;;;0.10;0.10;;;5.40;99.90;;;;;;5143617;28;20079;-78
2022/01/14 05:00:26;;;;;;;0.10;0.10;;;5.40;99.90;;;;;;5143912;28;20097;-78
2022/01/14 05:02:54;;;;;;;0.00;0.00;;;5.60;99.90;;;;;;5126089;28;20455;-78
2022/01/14 05:05:24;;;;;;;0.10;0.10;;;5.30;99.90;;;;;;5109820;28;20097;-79
2022/01/14 05:07:51;;;;;;;0.10;0.10;;;5.30;99.90;;;;;;5093413;28;20127;-78
2022/01/14 05:12:52;;;;;;;0.10;0.10;;;5.30;99.90;;;;;;5126022;28;20048;-79
2022/01/14 05:15:19;;;;;;;0.10;0.10;;;5.30;99.90;;;;;;5126655;28;20042;-79
2022/01/14 05:17:47;;;;;;;0.10;0.10;;;5.30;99.90;;;;;;5092559;28;20538;-79
2022/01/14 05:20:16;;;;;;;0.10;0.10;;;5.30;99.90;;;;;;5093232;28;20695;-78
2022/01/14 05:22:43;;;;;;;0.10;0.10;;;5.30;99.90;;;;;;5093171;28;20056;-78
2022/01/14 05:25:13;;;;;;;0.10;0.10;;;5.80;99.90;;;;;;5126119;28;20047;-79
2022/01/14 05:27:42;;;;;;;0.10;0.10;;;5.90;99.90;;;;;;5126304;28;20048;-80
2022/01/14 05:30:11;;;;;;;0.10;0.10;;;5.80;99.90;;;;;;5109177;28;20059;-79
2022/01/14 05:32:46;;;;;;;0.00;0.00;;;5.40;99.90;;;;;;5092686;28;20040;-79
2022/01/14 05:35:15;;;;;;;0.10;0.10;;;5.40;99.90;;;;;;5109188;28;20137;-78
2022/01/14 05:37:43;;;;;;;0.22;0.22;;;5.50;99.90;;;;;;5125837;28;20044;-78
2022/01/14 05:40:11;;;;;;;0.10;0.10;;;5.40;99.90;;;;;;5108928;28;20496;-79
2022/01/14 05:42:38;;;;;;;0.00;0.00;;;5.40;99.90;;;;;;5125220;28;20417;-80
2022/01/14 05:45:07;;;;;;;0.10;0.10;;;5.50;99.90;;;;;;5125534;28;20043;-79
2022/01/14 05:47:35;;;;;;;0.10;0.10;;;5.50;99.90;;;;;;5126057;28;20058;-78
2022/01/14 05:50:08;;;;;;;0.10;0.10;;;5.50;99.90;;;;;;5108687;28;20076;-78
2022/01/14 05:52:34;;;;;;;0.10;0.10;;;5.50;99.90;;;;;;5109117;28;20469;-79
2022/01/14 05:55:02;;;;;;;0.10;0.10;;;5.90;99.90;;;;;;5092000;28;20040;-79
2022/01/14 05:57:30;;;;;;;0.10;0.10;;;5.50;99.90;;;;;;5092273;28;20078;-79
2022/01/14 05:59:57;;;;;;;0.10;0.10;;;5.50;99.90;;;;;;5092124;28;20071;-79
2022/01/14 06:02:23;;;;;;;0.10;0.10;;;5.50;99.90;;;;;;5092767;28;20082;-79
2022/01/14 06:04:50;;;;;;;0.10;0.10;;;5.50;99.90;;;;;;5108979;28;20089;-79
2022/01/14 06:07:17;;;;;;;0.15;0.15;;;6.00;99.90;;;;;;5091743;28;20044;-79
2022/01/14 06:09:43;;;;;;;0.10;0.10;;;5.60;99.90;;;;;;5108639;28;20274;-80
2022/01/14 06:12:10;;;;;;;0.10;0.10;;;5.60;99.90;;;;;;5108341;28;20036;-78
2022/01/14 06:14:37;;;;;;;0.65;0.28;;;5.60;99.90;;;;;;5091921;28;20044;-79
2022/01/14 06:17:05;;;;;;;0.10;0.10;;;5.50;99.90;;;;;;5108355;28;20048;-79
2022/01/14 06:19:31;;;;;;;0.10;0.10;;;5.60;99.90;;;;;;5092466;28;20124;-78
2022/01/14 06:21:58;;;;;;;0.03;0.03;;;5.60;99.90;;;;;;5092123;28;20853;-80
2022/01/14 06:24:25;;;;;;;0.10;0.10;;;5.60;99.90;;;;;;5091915;28;20412;-79
2022/01/14 06:26:51;;;;;;;0.10;0.10;;;5.50;99.90;;;;;;5091884;28;20485;-80
2022/01/14 06:29:18;;;;;;;0.10;0.10;;;5.60;99.90;;;;;;5091817;28;20134;-79
2022/01/14 06:31:45;;;;;;;0.10;0.10;;;5.60;99.90;;;;;;5091856;28;20542;-79
2022/01/14 06:34:14;;;;;;;0.00;0.00;;;5.50;99.90;;;;;;5091533;28;20135;-80
2022/01/14 06:36:44;;;;;;;0.25;0.25;;;6.10;99.90;;;;;;5092494;28;20037;-78
2022/01/14 06:39:11;;;;;;;0.10;0.10;;;5.80;99.90;;;;;;5091463;28;20123;-80
2022/01/14 06:41:38;;;;;;;0.10;0.10;;;5.60;99.90;;;;;;5128093;28;20407;-79
2022/01/14 06:44:06;;;;;;;0.10;0.10;;;5.60;99.90;;;;;;5108033;28;20131;-78
2022/01/14 06:46:32;;;;;;;0.10;0.10;;;5.60;99.90;;;;;;5108926;28;20105;-78
2022/01/14 06:48:59;;;;;;;0.20;0.20;;;5.60;99.90;;;;;;5091939;28;20044;-79
2022/01/14 06:51:26;;;;;;;0.10;0.10;;;5.60;99.90;;;;;;5108138;28;20177;-79
2022/01/14 06:53:53;;;;;;;0.10;0.10;;;5.50;99.90;;;;;;5109310;28;20036;-78
2022/01/14 06:56:20;;;;;;;0.10;0.10;;;5.60;99.90;;;;;;5112441;28;20625;-78
2022/01/14 06:58:46;;;;;;;0.10;0.10;;;5.60;99.90;;;;;;5111999;28;20036;-80
2022/01/14 07:01:13;;;;;;;0.10;0.10;;;5.60;99.90;;;;;;5111791;28;20040;-80
2022/01/14 07:03:40;;;;;;;0.10;0.10;;;5.50;99.90;;;;;;5095659;28;20048;-80
2022/01/14 07:06:07;;;;;;;0.10;0.10;;;5.60;99.90;;;;;;5110874;28;20032;-79
2022/01/14 07:08:33;;;;;;;0.10;0.10;;;5.50;99.90;;;;;;5120817;28;20456;-79
2022/01/14 07:11:00;;;;;;;0.15;0.15;;;5.50;99.90;;;;;;5095348;28;20390;-79
2022/01/14 07:13:27;;;;;;;0.10;0.10;;;5.50;99.90;;;;;;5111717;28;20040;-80
2022/01/14 07:15:53;;;;;;;0.10;0.10;;;5.50;99.90;;;;;;5128981;28;20047;-78
2022/01/14 07:18:20;;;;;;;0.10;0.10;;;5.60;99.90;;;;;;5128346;28;20032;-80
2022/01/14 07:20:47;;;;;;;0.10;0.10;;;5.60;99.90;;;;;;5148282;28;20114;-79
2022/01/14 07:23:14;;;;;;;0.10;0.10;;;5.60;99.90;;;;;;5131467;28;20048;-79
2022/01/14 07:25:40;;;;;;;0.10;0.10;;;5.60;99.90;;;;;;5111647;28;20097;-79
2022/01/14 07:28:07;;;;;;;0.20;0.20;;;5.60;99.90;;;;;;5155303;27;20040;-78
2022/01/14 07:30:34;;;;;;;0.10;0.10;;;6.30;99.90;;;;;;5132293;28;20091;-80
2022/01/14 07:33:01;;;;;;;0.10;0.10;;;5.60;99.90;;;;;;5143095;28;20028;-79
2022/01/14 07:35:28;;;;;;;0.10;0.10;;;5.60;99.90;;;;;;5109300;28;20036;-78
2022/01/14 07:37:55;;;;;;;0.00;0.00;;;5.60;99.90;;;;;;5108909;28;20143;-79
2022/01/14 07:40:22;;;;;;;0.00;0.00;;;5.60;99.90;;;;;;5131234;28;20036;-78
2022/01/14 07:42:48;;;;;;;0.10;0.10;;;5.60;99.90;;;;;;5147668;28;20040;-80
2022/01/14 07:45:15;;;;;;;0.10;0.10;;;5.60;99.90;;;;;;5130421;28;20121;-79
2022/01/14 07:47:42;;;;;;;0.10;0.10;;;5.60;99.90;;;;;;5110769;28;20051;-79
2022/01/14 07:50:09;;;;;;;0.10;0.10;;;5.60;99.90;;;;;;5110117;28;20130;-78
2022/01/14 07:52:35;;;;;;;0.00;0.00;;;5.60;99.90;;;;;;5116093;28;20140;-79
2022/01/14 07:55:04;;;;;;;0.10;0.10;;;5.60;99.90;;;;;;5145448;28;20422;-79
2022/01/14 07:57:30;;;;;;;0.10;0.10;;;5.60;99.90;;;;;;5130572;28;20039;-78
2022/01/14 07:59:57;;;;;;;0.10;0.10;;;5.60;99.90;;;;;;5114147;28;20173;-81
2022/01/14 08:02:25;;;;;;;0.10;0.10;;;5.60;99.90;;;;;;5148500;27;20043;-78
2022/01/14 08:04:52;;;;;;;0.10;0.10;;;5.60;99.90;;;;;;5147913;28;20036;-80
2022/01/14 08:07:22;;;;;;;0.10;0.10;;;5.70;99.90;;;;;;5147812;28;20032;-79
2022/01/14 08:09:49;;;;;;;0.10;0.10;;;5.70;99.90;;;;;;5149512;27;20039;-80
2022/01/14 08:12:16;;;;;;;0.20;0.20;;;5.70;99.90;;;;;;5166096;27;20054;-82
2022/01/14 08:14:43;;;;;;;0.10;0.10;;;5.70;99.90;;;;;;5115182;28;20411;-80
2022/01/14 08:17:11;;;;;;;0.10;0.10;;;5.80;99.90;;;;;;5131712;28;20404;-79
2022/01/14 08:19:38;;;;;;;0.10;0.10;;;5.70;99.90;;;;;;5165611;27;20062;-80
2022/01/14 08:22:06;;;;;;;0.10;0.10;;;5.70;99.90;;;;;;5166100;27;20035;-79
2022/01/14 08:24:35;;;;;;;0.10;0.10;;;5.90;99.90;;;;;;5094230;28;20064;-79
2022/01/14 08:27:03;;;;;;;0.10;0.10;;;5.70;99.90;;;;;;5160954;27;20090;-82
2022/01/14 08:29:30;;;;;;;0.10;0.10;;;5.80;99.90;;;;;;5114472;28;20044;-82
2022/01/14 08:31:57;;;;;;;0.08;0.08;;;5.80;99.90;;;;;;5103082;28;20075;-79
2022/01/14 08:34:24;;;;;;;0.00;0.00;;;5.70;99.90;;;;;;5130752;28;20066;-82
2022/01/14 08:36:51;;;;;;;0.10;0.10;;;5.80;99.90;;;;;;5114654;28;20078;-80
2022/01/14 08:39:21;;;;;;;0.10;0.10;;;5.80;99.90;;;;;;5112584;28;20036;-79
2022/01/14 08:41:48;;;;;;;0.10;0.10;;;5.80;99.90;;;;;;5108818;28;20119;-81
2022/01/14 08:44:15;;;;;;;0.10;0.10;;;5.80;99.90;;;;;;5126763;28;20385;-81
2022/01/14 08:46:42;;;;;;;0.10;0.10;;;5.80;99.90;;;;;;5130190;28;20050;-81
2022/01/14 08:49:09;;;;;;;0.10;0.10;;;5.90;99.90;;;;;;5130742;28;20511;-79
2022/01/14 08:51:37;;;;;;;0.10;0.10;;;5.90;99.90;;;;;;5113464;28;20043;-81
2022/01/14 08:54:04;;;;;;;0.10;0.10;;;5.90;99.90;;;;;;5131116;28;20040;-80
2022/01/14 08:56:32;;;;;;;0.10;0.10;;;6.00;99.90;;;;;;5111358;28;20914;-80
2022/01/14 08:59:00;;;;;;;0.10;0.10;;;5.90;99.90;;;;;;5130865;28;20096;-81
2022/01/14 09:01:28;;;;;;;0.10;0.10;;;6.00;99.90;;;;;;5129508;28;20046;-81
2022/01/14 09:03:55;;;;;;;0.10;0.10;;;6.00;99.90;;;;;;5147646;28;20039;-79
2022/01/14 09:06:22;;;;;;;0.10;0.10;;;5.90;99.90;;;;;;5130009;28;20442;-80
2022/01/14 09:08:49;;;;;;;0.10;0.10;;;6.00;99.90;;;;;;5143939;28;20044;-79
2022/01/14 09:11:16;;;;;;;0.00;0.00;;;6.00;99.90;;;;;;5143814;28;20044;-80
2022/01/14 09:13:43;;;;;;;0.20;0.20;;;5.60;99.90;;;;;;5113087;28;20054;-80
2022/01/14 09:16:09;;;;;;;0.20;0.20;;;6.10;99.90;;;;;;5113538;28;20035;-80
2022/01/14 09:18:36;;;;;;;0.10;0.10;;;6.10;99.90;;;;;;5110920;28;20038;-81
2022/01/14 09:21:03;;;;;;;0.10;0.10;;;6.10;99.90;;;;;;5151019;27;20042;-79
2022/01/14 09:23:33;;;;;;;0.10;0.10;;;6.10;99.90;;;;;;5111053;28;20150;-79
2022/01/14 09:25:59;;;;;;;0.10;0.10;;;6.10;99.90;;;;;;5129774;28;20123;-81
2022/01/14 09:28:28;;;;;;;0.10;0.10;;;6.10;99.90;;;;;;5129039;28;20149;-81
2022/01/14 09:30:55;;;;;;;0.10;0.10;;;6.20;99.90;;;;;;5130311;28;20054;-82
2022/01/14 09:33:21;;;;;;;0.10;0.10;;;6.20;99.90;;;;;;5129823;28;20039;-81
2022/01/14 09:35:48;;;;;;;0.10;0.10;;;6.30;99.90;;;;;;5146970;28;20051;-81
2022/01/14 09:38:16;;;;;;;0.10;0.10;;;6.30;99.90;;;;;;5129029;28;20031;-82
2022/01/14 09:40:47;;;;;;;0.10;0.10;;;6.30;99.90;;;;;;5146231;28;20048;-79
2022/01/14 09:43:15;;;;;;;0.00;0.00;;;6.40;99.90;;;;;;5174628;27;20043;-80
2022/01/14 09:45:42;;;;;;;0.00;0.00;;;6.40;99.90;;;;;;5129437;28;20033;-81
2022/01/14 09:48:13;;;;;;;0.10;0.10;;;6.40;99.90;;;;;;5146537;28;20047;-81
2022/01/14 09:50:41;;;;;;;0.10;0.10;;;6.50;99.90;;;;;;5133269;28;20044;-82
2022/01/14 09:53:14;;;;;;;0.10;0.10;;;6.60;99.90;;;;;;5111305;28;20450;-80
2022/01/14 09:55:42;;;;;;;0.10;0.10;;;6.50;99.90;;;;;;5144741;27;20407;-83
2022/01/14 09:58:10;;;;;;;0.10;0.10;;;6.60;99.90;;;;;;5123248;28;20036;-82
2022/01/14 10:00:37;;;;;;;0.00;0.00;;;6.60;99.90;;;;;;5129492;28;20075;-82
2022/01/14 10:03:21;;;;;;;0.10;0.10;;;6.60;99.90;;;;;;5129403;28;20039;-80
2022/01/14 10:05:51;;;;;;;0.10;0.10;;;6.60;99.90;;;;;;5129601;28;20626;-80
2022/01/14 10:08:23;;;;;;;0.08;0.08;;;6.70;99.90;;;;;;5146582;27;20039;-81
2022/01/14 10:10:55;;;;;;;0.10;0.10;;;6.60;99.90;;;;;;5129319;28;20074;-79
2022/01/14 10:13:43;;;;;;;0.10;0.10;;;6.70;99.90;;;;;;5129121;28;20730;-82
2022/01/14 10:16:10;;;;;;;0.08;0.08;;;6.70;99.90;;;;;;5113204;28;20071;-82
2022/01/14 10:18:39;;;;;;;0.10;0.10;;;6.70;99.90;;;;;;5129067;28;20770;-79
2022/01/14 10:21:08;;;;;;;0.10;0.10;;;6.70;99.90;;;;;;5130232;28;20122;-80
2022/01/14 10:23:51;;;;;;;0.00;0.00;;;6.80;99.90;;;;;;5128548;28;20477;-80
2022/01/14 10:26:18;;;;;;;0.10;0.10;;;6.70;99.90;;;;;;5112756;28;20130;-82
2022/01/14 10:28:59;;;;;;;0.08;0.08;;;6.80;99.90;;;;;;5145136;28;20047;-81
2022/01/14 10:31:34;;;;;;;1.67;0.52;;;6.80;99.90;;;;;;5146214;28;20047;-81
2022/01/14 10:34:13;;;;;;;0.10;0.10;;;7.20;99.90;;;;;;5128693;28;20044;-79
2022/01/14 10:36:44;;;;;;;0.00;0.00;;;6.80;99.90;;;;;;5129090;28;20036;-79
2022/01/14 10:39:25;;;;;;;0.10;0.10;;;6.80;99.90;;;;;;5128433;28;20065;-80
2022/01/14 10:41:55;;;;;;;0.10;0.10;;;6.80;99.90;;;;;;5124576;28;20044;-79
2022/01/14 10:44:27;;;;;;;0.10;0.10;;;6.80;99.90;;;;;;5145785;28;20047;-79
2022/01/14 10:47:14;;;;;;;0.10;0.10;;;6.90;99.90;;;;;;5129030;28;20412;-79
2022/01/14 10:49:43;;;;;;;0.10;0.10;;;6.80;99.90;;;;;;5128331;28;20118;-79
2022/01/14 10:52:15;;;;;;;0.10;0.10;;;6.80;99.90;;;;;;5128719;28;20047;-81
2022/01/14 10:54:49;;;;;;;0.10;0.10;;;6.80;99.90;;;;;;5128677;28;20043;-79
2022/01/14 10:57:21;;;;;;;0.08;0.08;;;6.80;99.90;;;;;;5128843;28;20128;-79
2022/01/14 10:59:50;;;;;;;0.03;0.03;;;6.90;99.90;;;;;;5128973;28;20036;-78
2022/01/14 11:02:35;;;;;;;0.10;0.10;;;7.00;99.90;;;;;;5162127;28;20062;-82
2022/01/14 11:05:17;;;;;;;0.00;0.00;;;6.90;99.90;;;;;;5128757;28;20089;-79
2022/01/14 11:07:47;;;;;;;0.10;0.10;;;6.90;99.90;;;;;;5156998;28;20054;-79
2022/01/14 11:10:23;;;;;;;0.00;0.00;;;6.90;99.90;;;;;;5145256;28;20035;-81
2022/01/14 11:12:52;;;;;;;0.00;0.00;;;6.90;99.90;;;;;;5128801;28;20043;-81
2022/01/14 11:15:20;;;;;;;0.08;0.08;;;6.90;99.90;;;;;;5145967;28;20496;-79
2022/01/14 11:17:51;;;;;;;0.10;0.10;;;6.90;99.90;;;;;;5127682;28;20527;-80
2022/01/14 11:20:28;;;;;;;0.03;0.03;;;7.00;99.90;;;;;;5128252;28;20031;-80
2022/01/14 11:26:08;;;;;;;0.10;0.10;;;7.00;99.90;;;;;;5130058;28;20461;-78
2022/01/14 11:28:39;;;;;;;0.10;0.10;;;7.00;99.90;;;;;;5125123;28;20142;-79
2022/01/14 11:31:36;;;;;;;0.10;0.10;;;7.30;99.90;;;;;;5162586;28;20118;-81
2022/01/14 11:34:05;;;;;;;0.08;0.08;;;7.00;99.90;;;;;;5107957;28;20512;-78
2022/01/14 11:36:52;;;;;;;0.10;0.10;;;7.00;99.90;;;;;;5124812;28;20497;-80
2022/01/14 11:39:22;;;;;;;0.10;0.10;;;7.00;99.90;;;;;;5145679;28;20044;-78
2022/01/14 11:41:57;;;;;;;0.08;0.08;;;7.10;99.90;;;;;;5159610;27;20040;-81
2022/01/14 11:45:00;;;;;;;0.10;0.10;;;7.00;99.90;;;;;;5162444;27;20051;-81
2022/01/14 11:47:38;;;;;;;0.10;0.10;;;7.00;99.90;;;;;;5120563;28;20071;-81
2022/01/14 11:50:24;;;;;;;0.10;0.10;;;7.10;99.90;;;;;;5148975;28;20043;-80
2022/01/14 11:52:51;;;;;;;0.10;0.10;;;7.10;99.90;;;;;;5131270;28;20052;-79
2022/01/14 11:55:21;;;;;;;0.10;0.10;;;7.10;99.90;;;;;;5131601;28;20510;-79
2022/01/14 11:57:50;;;;;;;0.00;0.00;;;7.10;99.90;;;;;;5130982;28;20464;-81
2022/01/14 12:00:26;;;;;;;0.10;0.10;;;7.10;99.90;;;;;;5148960;28;20039;-81
2022/01/14 12:03:25;;;;;;;0.10;0.10;;;7.10;99.90;;;;;;5130828;28;20142;-81
2022/01/14 12:06:07;;;;;;;0.00;0.00;;;7.10;99.90;;;;;;5131351;28;20044;-79
2022/01/14 12:08:36;;;;;;;0.00;0.00;;;7.10;99.90;;;;;;5131588;28;20058;-80
2022/01/14 12:11:05;;;;;;;0.10;0.10;;;7.10;99.90;;;;;;5147938;28;20039;-81
2022/01/14 12:13:51;;;;;;;0.00;0.00;;;7.80;99.90;;;;;;5148583;28;20047;-79
2022/01/14 12:19:04;;;;;;;0.00;0.00;;;7.10;99.90;;;;;;5148305;28;20050;-80
2022/01/14 12:21:43;;;;;;;0.00;0.00;;;7.10;99.90;;;;;;5148478;28;20036;-81
2022/01/14 12:24:18;;;;;;;0.10;0.10;;;7.10;99.90;;;;;;5147943;28;20055;-79
2022/01/14 12:26:58;;;;;;;0.00;0.00;;;7.10;99.90;;;;;;5147637;28;20056;-80
2022/01/14 12:29:39;;;;;;;0.10;0.10;;;7.20;99.90;;;;;;5147814;28;20532;-81
2022/01/14 12:32:21;;;;;;;0.00;0.00;;;7.10;99.90;;;;;;5146147;28;20382;-81
2022/01/14 12:34:56;;;;;;;0.10;0.10;;;7.10;99.90;;;;;;5130271;28;20067;-80
2022/01/14 12:37:43;;;;;;;0.00;0.00;;;7.10;99.90;;;;;;5147937;28;20184;-79
2022/01/14 12:40:12;;;;;;;0.10;0.10;;;7.20;99.90;;;;;;5144430;27;20036;-79
2022/01/14 12:42:40;;;;;;;0.00;0.00;;;7.20;99.90;;;;;;5144162;28;20039;-79
2022/01/14 12:45:10;;;;;;;0.10;0.10;;;7.10;99.90;;;;;;5094080;28;20036;-79
2022/01/14 12:47:41;;;;;;;0.08;0.08;;;7.20;99.90;;;;;;5143759;28;20047;-78
2022/01/14 12:50:10;;;;;;;0.03;0.03;;;7.10;99.90;;;;;;5144262;28;20044;-81
2022/01/14 12:52:50;;;;;;;0.00;0.00;;;7.10;99.90;;;;;;5143587;28;20569;-81
2022/01/14 12:55:18;;;;;;;0.00;0.00;;;7.10;99.90;;;;;;5144215;28;20039;-81
2022/01/14 12:57:45;;;;;;;0.10;0.10;;;7.10;99.90;;;;;;5126276;28;20040;-79
2022/01/14 13:00:14;;;;;;;0.10;0.10;;;7.10;99.90;;;;;;5126837;28;20039;-80
2022/01/14 13:02:41;;;;;;;0.13;0.13;;;7.00;99.90;;;;;;5143511;28;20071;-79
2022/01/14 13:05:15;;;;;;;0.10;0.10;;;7.00;99.90;;;;;;5126887;28;20035;-79
2022/01/14 13:07:44;;;;;;;0.00;0.00;;;7.00;99.90;;;;;;5143882;28;20155;-80
2022/01/14 13:10:13;;;;;;;0.00;0.00;;;7.00;99.90;;;;;;5158181;27;20544;-80
2022/01/14 13:12:43;;;;;;;0.00;0.00;;;7.00;99.90;;;;;;5164350;27;20054;-81
2022/01/14 13:15:20;;;;;;;0.00;0.00;;;7.00;99.90;;;;;;5130535;28;20042;-80
2022/01/14 13:17:53;;;;;;;0.00;0.00;;;7.00;99.90;;;;;;5129740;28;20499;-81
2022/01/14 13:20:21;;;;;;;0.20;0.20;;;7.00;99.90;;;;;;5130655;28;20057;-78
2022/01/14 13:22:50;;;;;;;0.00;0.00;;;7.00;99.90;;;;;;5129087;28;20140;-78
2022/01/14 13:25:20;;;;;;;0.00;0.00;;;7.00;99.90;;;;;;5147738;28;20040;-78
2022/01/14 13:27:48;;;;;;;0.10;0.10;;;7.00;99.90;;;;;;5181299;27;20036;-81
2022/01/14 13:30:23;;;;;;;0.00;0.00;;;7.00;99.90;;;;;;5164005;27;20047;-79
2022/01/14 13:32:51;;;;;;;0.00;0.00;;;7.00;99.90;;;;;;5129733;28;20484;-78
2022/01/14 13:35:23;;;;;;;0.08;0.08;;;7.10;99.90;;;;;;5164238;27;20146;-80
2022/01/14 13:37:59;;;;;;;0.20;0.20;;;7.10;99.90;;;;;;5145848;28;20088;-78
2022/01/14 13:40:29;;;;;;;0.10;0.10;;;7.10;99.90;;;;;;5129398;28;20047;-78